sensor_id;sensor_type;location;lat;lon;timestamp;pressure;altitude;pressure_sealevel;temperature;humidity
45040;BME280;30778;53.574;7.770;2023-05-01T00:00:40;101982.72;;;5.55;45.88
45040;BME280;30778;53.574;7.770;2023-05-01T00:03:05;101978.38;;;5.54;45.63
45040;BME280;30778;53.574;7.770;2023-05-01T00:05:31;101972.34;;;5.51;45.89
45040;BME280;30778;53.574;7.770;2023-05-01T00:07:56;101968.00;;;5.45;46.11
45040;BME280;30778;53.574;7.770;2023-05-01T00:10:22;101963.69;;;5.42;46.47
45040;BME280;30778;53.574;7.770;2023-05-01T00:12:47;101967.16;;;5.40;46.59
45040;BME280;30778;53.574;7.770;2023-05-01T00:15:13;101961.13;;;5.38;46.38
45040;BME280;30778;53.574;7.770;2023-05-01T00:17:38;101957.66;;;5.36;46.14
45040;BME280;30778;53.574;7.770;2023-05-01T00:20:04;101953.34;;;5.38;46.86
45040;BME280;30778;53.574;7.770;2023-05-01T00:22:30;101950.72;;;5.36;46.62
45040;BME280;30778;53.574;7.770;2023-05-01T00:24:55;101949.88;;;5.37;46.86
45040;BME280;30778;53.574;7.770;2023-05-01T00:27:20;101955.09;;;5.33;46.72
45040;BME280;30778;53.574;7.770;2023-05-01T00:29:46;101951.63;;;5.29;46.92
45040;BME280;30778;53.574;7.770;2023-05-01T00:32:11;101944.69;;;5.30;46.92
45040;BME280;30778;53.574;7.770;2023-05-01T00:34:37;101947.28;;;5.30;46.67
45040;BME280;30778;53.574;7.770;2023-05-01T00:37:02;101943.84;;;5.21;46.99
45040;BME280;30778;53.574;7.770;2023-05-01T00:39:28;101940.38;;;5.22;47.00
45040;BME280;30778;53.574;7.770;2023-05-01T00:41:53;101936.94;;;5.17;47.50
45040;BME280;30778;53.574;7.770;2023-05-01T00:44:20;101935.22;;;5.15;47.62
45040;BME280;30778;53.574;7.770;2023-05-01T00:46:45;101932.59;;;5.16;47.17
45040;BME280;30778;53.574;7.770;2023-05-01T00:49:11;101928.31;;;5.15;47.47
45040;BME280;30778;53.574;7.770;2023-05-01T00:51:36;101920.53;;;5.17;48.15
45040;BME280;30778;53.574;7.770;2023-05-01T00:54:02;101914.47;;;5.13;47.89
45040;BME280;30778;53.574;7.770;2023-05-01T00:56:30;101911.03;;;5.11;48.26
45040;BME280;30778;53.574;7.770;2023-05-01T00:58:56;101910.16;;;5.17;47.68
45040;BME280;30778;53.574;7.770;2023-05-01T01:01:22;101911.00;;;5.14;48.49
45040;BME280;30778;53.574;7.770;2023-05-01T01:03:48;101909.28;;;5.07;48.42
45040;BME280;30778;53.574;7.770;2023-05-01T01:06:27;101906.69;;;5.05;48.48
45040;BME280;30778;53.574;7.770;2023-05-01T01:11:32;101898.94;;;5.19;48.38
45040;BME280;30778;53.574;7.770;2023-05-01T01:14:22;101895.47;;;5.28;47.89
45040;BME280;30778;53.574;7.770;2023-05-01T01:22:22;101886.81;;;4.88;48.76
45040;BME280;30778;53.574;7.770;2023-05-01T01:36:01;101868.69;;;4.72;49.89
45040;BME280;30778;53.574;7.770;2023-05-01T01:38:56;101868.66;;;4.69;49.93
45040;BME280;30778;53.574;7.770;2023-05-01T01:41:25;101859.19;;;4.68;50.48
45040;BME280;30778;53.574;7.770;2023-05-01T01:44:00;101857.44;;;4.73;50.64
45040;BME280;30778;53.574;7.770;2023-05-01T01:46:27;101857.47;;;4.79;50.35
45040;BME280;30778;53.574;7.770;2023-05-01T01:48:54;101854.84;;;4.76;50.51
45040;BME280;30778;53.574;7.770;2023-05-01T01:51:23;101847.09;;;4.84;50.07
45040;BME280;30778;53.574;7.770;2023-05-01T01:53:52;101850.53;;;4.75;50.02
45040;BME280;30778;53.574;7.770;2023-05-01T01:56:21;101838.47;;;4.68;50.41
45040;BME280;30778;53.574;7.770;2023-05-01T01:58:50;101832.41;;;4.69;50.72
45040;BME280;30778;53.574;7.770;2023-05-01T02:01:18;101829.81;;;4.69;50.29
45040;BME280;30778;53.574;7.770;2023-05-01T02:03:45;101826.38;;;4.58;50.73
45040;BME280;30778;53.574;7.770;2023-05-01T02:06:12;101825.53;;;4.59;51.04
45040;BME280;30778;53.574;7.770;2023-05-01T02:08:41;101824.63;;;4.58;51.10
45040;BME280;30778;53.574;7.770;2023-05-01T02:11:10;101815.16;;;4.63;50.62
45040;BME280;30778;53.574;7.770;2023-05-01T02:13:39;101822.06;;;4.61;50.64
45040;BME280;30778;53.574;7.770;2023-05-01T02:16:06;101812.56;;;4.60;50.90
45040;BME280;30778;53.574;7.770;2023-05-01T02:18:33;101810.81;;;4.52;50.94
45040;BME280;30778;53.574;7.770;2023-05-01T02:21:00;101812.53;;;4.50;51.12
45040;BME280;30778;53.574;7.770;2023-05-01T02:23:27;101810.84;;;4.46;51.00
45040;BME280;30778;53.574;7.770;2023-05-01T02:25:55;101804.78;;;4.45;51.07
45040;BME280;30778;53.574;7.770;2023-05-01T02:28:23;101801.34;;;4.45;51.32
45040;BME280;30778;53.574;7.770;2023-05-01T02:30:49;101806.50;;;4.43;51.30
45040;BME280;30778;53.574;7.770;2023-05-01T02:33:14;101803.94;;;4.48;51.07
45040;BME280;30778;53.574;7.770;2023-05-01T02:35:44;101803.06;;;4.62;50.80
45040;BME280;30778;53.574;7.770;2023-05-01T02:38:13;101795.28;;;4.67;50.38
45040;BME280;30778;53.574;7.770;2023-05-01T02:40:42;101795.31;;;4.64;50.46
45040;BME280;30778;53.574;7.770;2023-05-01T02:43:11;101791.84;;;4.57;50.48
45040;BME280;30778;53.574;7.770;2023-05-01T02:45:39;101792.72;;;4.46;50.80
45040;BME280;30778;53.574;7.770;2023-05-01T02:48:08;101784.94;;;4.33;50.66
45040;BME280;30778;53.574;7.770;2023-05-01T02:50:38;101791.84;;;4.37;50.73
45040;BME280;30778;53.574;7.770;2023-05-01T02:53:08;101778.03;;;4.29;50.80
45040;BME280;30778;53.574;7.770;2023-05-01T02:55:44;101778.91;;;4.28;51.03
45040;BME280;30778;53.574;7.770;2023-05-01T02:58:19;101776.31;;;4.22;51.13
45040;BME280;30778;53.574;7.770;2023-05-01T03:00:47;101768.56;;;4.19;51.30
45040;BME280;30778;53.574;7.770;2023-05-01T03:03:13;101763.38;;;4.17;51.39
45040;BME280;30778;53.574;7.770;2023-05-01T03:05:40;101760.78;;;4.19;51.36
45040;BME280;30778;53.574;7.770;2023-05-01T03:08:07;101758.19;;;4.16;51.33
45040;BME280;30778;53.574;7.770;2023-05-01T03:10:34;101759.91;;;4.17;51.61
45040;BME280;30778;53.574;7.770;2023-05-01T03:13:00;101757.34;;;4.17;51.54
45040;BME280;30778;53.574;7.770;2023-05-01T03:15:26;101751.28;;;4.22;51.59
45040;BME280;30778;53.574;7.770;2023-05-01T03:17:52;101743.53;;;4.30;51.51
45040;BME280;30778;53.574;7.770;2023-05-01T03:20:17;101747.84;;;4.28;51.39
45040;BME280;30778;53.574;7.770;2023-05-01T03:22:42;101748.69;;;4.27;51.46
45040;BME280;30778;53.574;7.770;2023-05-01T03:25:08;101739.22;;;4.37;51.07
45040;BME280;30778;53.574;7.770;2023-05-01T03:27:35;101733.19;;;4.35;50.85
45040;BME280;30778;53.574;7.770;2023-05-01T03:30:00;101738.38;;;4.30;50.88
45040;BME280;30778;53.574;7.770;2023-05-01T03:32:27;101734.06;;;4.23;51.00
45040;BME280;30778;53.574;7.770;2023-05-01T03:34:54;101727.13;;;4.20;51.06
45040;BME280;30778;53.574;7.770;2023-05-01T03:37:20;101721.09;;;4.20;51.14
45040;BME280;30778;53.574;7.770;2023-05-01T03:39:46;101721.13;;;4.23;50.80
45040;BME280;30778;53.574;7.770;2023-05-01T03:42:40;101721.97;;;4.24;50.65
45040;BME280;30778;53.574;7.770;2023-05-01T03:45:16;101714.22;;;4.19;50.96
45040;BME280;30778;53.574;7.770;2023-05-01T03:47:42;101704.72;;;4.16;50.89
45040;BME280;30778;53.574;7.770;2023-05-01T03:50:08;101700.38;;;4.14;51.08
45040;BME280;30778;53.574;7.770;2023-05-01T03:52:35;101704.72;;;4.10;50.85
45040;BME280;30778;53.574;7.770;2023-05-01T03:55:01;101699.53;;;4.09;50.98
45040;BME280;30778;53.574;7.770;2023-05-01T03:57:39;101697.81;;;4.08;50.62
45040;BME280;30778;53.574;7.770;2023-05-01T04:00:06;101702.09;;;4.02;50.85
45040;BME280;30778;53.574;7.770;2023-05-01T04:02:40;101696.94;;;4.02;50.80
45040;BME280;30778;53.574;7.770;2023-05-01T04:05:08;101698.66;;;4.00;51.09
45040;BME280;30778;53.574;7.770;2023-05-01T04:07:34;101695.22;;;4.01;50.62
45040;BME280;30778;53.574;7.770;2023-05-01T04:09:59;101708.16;;;3.98;51.00
45040;BME280;30778;53.574;7.770;2023-05-01T04:12:25;101694.34;;;3.99;50.74
45040;BME280;30778;53.574;7.770;2023-05-01T04:14:50;101691.78;;;4.06;50.66
45040;BME280;30778;53.574;7.770;2023-05-01T04:17:16;101696.09;;;4.07;50.59
45040;BME280;30778;53.574;7.770;2023-05-01T04:19:41;101695.22;;;4.11;50.06
45040;BME280;30778;53.574;7.770;2023-05-01T04:22:07;101693.50;;;4.16;50.04
45040;BME280;30778;53.574;7.770;2023-05-01T04:24:34;101694.34;;;4.12;49.89
45040;BME280;30778;53.574;7.770;2023-05-01T04:27:01;101682.31;;;4.08;50.07
45040;BME280;30778;53.574;7.770;2023-05-01T04:29:26;101684.88;;;4.11;50.08
45040;BME280;30778;53.574;7.770;2023-05-01T04:31:52;101680.56;;;4.17;50.00
45040;BME280;30778;53.574;7.770;2023-05-01T04:34:18;101684.03;;;4.16;50.01
45040;BME280;30778;53.574;7.770;2023-05-01T04:36:44;101689.19;;;4.15;49.95
45040;BME280;30778;53.574;7.770;2023-05-01T04:39:09;101686.59;;;4.18;50.06
45040;BME280;30778;53.574;7.770;2023-05-01T04:41:35;101687.47;;;4.37;49.46
45040;BME280;30778;53.574;7.770;2023-05-01T04:44:03;101684.88;;;4.35;49.06
45040;BME280;30778;53.574;7.770;2023-05-01T04:46:28;101680.56;;;4.39;49.07
45040;BME280;30778;53.574;7.770;2023-05-01T04:48:53;101680.53;;;4.48;48.96
45040;BME280;30778;53.574;7.770;2023-05-01T04:51:19;101680.50;;;4.60;48.61
45040;BME280;30778;53.574;7.770;2023-05-01T04:53:46;101671.88;;;4.64;48.47
45040;BME280;30778;53.574;7.770;2023-05-01T04:56:24;101670.13;;;4.79;48.33
45040;BME280;30778;53.574;7.770;2023-05-01T04:58:54;101667.50;;;4.90;47.99
45040;BME280;30778;53.574;7.770;2023-05-01T05:01:22;101671.78;;;4.98;47.43
45040;BME280;30778;53.574;7.770;2023-05-01T05:03:48;101669.97;;;5.19;46.85
45040;BME280;30778;53.574;7.770;2023-05-01T05:06:13;101670.66;;;5.50;46.14
45040;BME280;30778;53.574;7.770;2023-05-01T05:08:39;101672.09;;;5.94;45.58
45040;BME280;30778;53.574;7.770;2023-05-01T05:11:07;101666.50;;;6.46;44.45
45040;BME280;30778;53.574;7.770;2023-05-01T05:13:46;101662.94;;;6.50;43.55
45040;BME280;30778;53.574;7.770;2023-05-01T05:16:12;101666.91;;;6.85;43.20
45040;BME280;30778;53.574;7.770;2023-05-01T05:18:38;101663.88;;;7.22;42.81
45040;BME280;30778;53.574;7.770;2023-05-01T05:21:05;101658.63;;;7.25;41.72
45040;BME280;30778;53.574;7.770;2023-05-01T05:23:31;101657.13;;;7.06;41.62
45040;BME280;30778;53.574;7.770;2023-05-01T05:25:58;101664.38;;;6.82;42.77
45040;BME280;30778;53.574;7.770;2023-05-01T05:28:26;101659.97;;;6.86;42.11
45040;BME280;30778;53.574;7.770;2023-05-01T05:30:53;101652.56;;;7.25;41.73
45040;BME280;30778;53.574;7.770;2023-05-01T05:33:20;101656.34;;;7.64;41.49
45040;BME280;30778;53.574;7.770;2023-05-01T05:35:45;101654.25;;;7.88;39.78
45040;BME280;30778;53.574;7.770;2023-05-01T05:38:11;101647.03;;;8.98;38.42
45040;BME280;30778;53.574;7.770;2023-05-01T05:40:39;101641.75;;;11.09;34.64
45040;BME280;30778;53.574;7.770;2023-05-01T05:43:14;101638.88;;;12.50;31.88
45040;BME280;30778;53.574;7.770;2023-05-01T05:45:40;101632.75;;;13.44;30.21
45040;BME280;30778;53.574;7.770;2023-05-01T05:48:06;101634.72;;;13.61;29.47
45040;BME280;30778;53.574;7.770;2023-05-01T05:50:36;101631.75;;;13.46;29.57
45040;BME280;30778;53.574;7.770;2023-05-01T05:53:02;101635.63;;;13.60;28.46
45040;BME280;30778;53.574;7.770;2023-05-01T05:55:27;101628.91;;;13.30;30.47
45040;BME280;30778;53.574;7.770;2023-05-01T05:58:02;101630.56;;;13.98;28.38
45040;BME280;30778;53.574;7.770;2023-05-01T06:00:29;101628.00;;;14.37;27.20
45040;BME280;30778;53.574;7.770;2023-05-01T06:02:57;101626.84;;;13.61;28.23
45040;BME280;30778;53.574;7.770;2023-05-01T06:05:25;101619.31;;;13.07;29.01
45040;BME280;30778;53.574;7.770;2023-05-01T06:07:52;101616.41;;;13.59;28.63
45040;BME280;30778;53.574;7.770;2023-05-01T06:10:20;101616.75;;;14.73;27.44
45040;BME280;30778;53.574;7.770;2023-05-01T06:12:45;101612.13;;;15.52;26.04
45040;BME280;30778;53.574;7.770;2023-05-01T06:15:12;101610.44;;;15.51;25.79
45040;BME280;30778;53.574;7.770;2023-05-01T06:17:45;101612.91;;;15.54;26.86
45040;BME280;30778;53.574;7.770;2023-05-01T06:20:11;101605.66;;;15.59;26.25
45040;BME280;30778;53.574;7.770;2023-05-01T06:22:39;101609.91;;;15.62;27.15
45040;BME280;30778;53.574;7.770;2023-05-01T06:25:16;101600.16;;;16.50;25.78
45040;BME280;30778;53.574;7.770;2023-05-01T06:27:42;101605.53;;;17.59;24.53
45040;BME280;30778;53.574;7.770;2023-05-01T06:30:08;101605.09;;;17.05;24.58
45040;BME280;30778;53.574;7.770;2023-05-01T06:32:38;101601.56;;;16.89;24.28
45040;BME280;30778;53.574;7.770;2023-05-01T06:35:03;101609.13;;;17.58;23.14
45040;BME280;30778;53.574;7.770;2023-05-01T06:37:29;101599.66;;;17.54;23.11
45040;BME280;30778;53.574;7.770;2023-05-01T06:39:55;101596.00;;;18.16;22.44
45040;BME280;30778;53.574;7.770;2023-05-01T06:42:20;101595.13;;;17.86;22.58
45040;BME280;30778;53.574;7.770;2023-05-01T06:44:46;101590.66;;;17.27;23.43
45040;BME280;30778;53.574;7.770;2023-05-01T06:47:12;101591.78;;;17.22;23.08
45040;BME280;30778;53.574;7.770;2023-05-01T06:49:39;101591.84;;;17.21;23.15
45040;BME280;30778;53.574;7.770;2023-05-01T06:52:07;101585.41;;;18.16;21.96
45040;BME280;30778;53.574;7.770;2023-05-01T06:54:33;101587.41;;;18.12;22.01
45040;BME280;30778;53.574;7.770;2023-05-01T06:56:58;101592.44;;;18.31;22.31
45040;BME280;30778;53.574;7.770;2023-05-01T06:59:24;101574.78;;;19.02;21.08
45040;BME280;30778;53.574;7.770;2023-05-01T07:01:49;101579.56;;;19.77;20.32
45040;BME280;30778;53.574;7.770;2023-05-01T07:04:15;101576.28;;;19.99;21.16
45040;BME280;30778;53.574;7.770;2023-05-01T07:06:40;101580.19;;;19.67;20.70
45040;BME280;30778;53.574;7.770;2023-05-01T07:09:06;101566.69;;;21.21;19.21
45040;BME280;30778;53.574;7.770;2023-05-01T07:11:32;101572.31;;;21.53;18.88
45040;BME280;30778;53.574;7.770;2023-05-01T07:13:58;101566.09;;;21.53;18.66
45040;BME280;30778;53.574;7.770;2023-05-01T07:16:23;101563.59;;;21.03;18.82
45040;BME280;30778;53.574;7.770;2023-05-01T07:18:49;101556.72;;;21.01;19.87
45040;BME280;30778;53.574;7.770;2023-05-01T07:21:15;101554.84;;;20.77;19.53
45040;BME280;30778;53.574;7.770;2023-05-01T07:23:40;101556.09;;;20.47;20.62
45040;BME280;30778;53.574;7.770;2023-05-01T07:26:06;101553.09;;;20.65;19.28
45040;BME280;30778;53.574;7.770;2023-05-01T07:28:32;101550.38;;;19.77;20.77
45040;BME280;30778;53.574;7.770;2023-05-01T07:30:57;101549.41;;;20.91;19.16
45040;BME280;30778;53.574;7.770;2023-05-01T07:33:23;101547.63;;;20.17;19.99
45040;BME280;30778;53.574;7.770;2023-05-01T07:35:51;101545.31;;;20.25;20.17
45040;BME280;30778;53.574;7.770;2023-05-01T07:38:17;101540.63;;;20.16;20.67
45040;BME280;30778;53.574;7.770;2023-05-01T07:40:42;101550.25;;;20.79;19.88
45040;BME280;30778;53.574;7.770;2023-05-01T07:43:08;101535.94;;;21.06;19.02
45040;BME280;30778;53.574;7.770;2023-05-01T07:45:40;101534.84;;;21.32;18.91
45040;BME280;30778;53.574;7.770;2023-05-01T07:48:07;101540.50;;;21.63;19.32
45040;BME280;30778;53.574;7.770;2023-05-01T07:50:32;101535.03;;;21.18;19.47
45040;BME280;30778;53.574;7.770;2023-05-01T07:52:58;101533.66;;;21.94;19.21
45040;BME280;30778;53.574;7.770;2023-05-01T07:55:24;101542.34;;;21.39;20.58
45040;BME280;30778;53.574;7.770;2023-05-01T07:57:50;101531.06;;;20.26;21.06
45040;BME280;30778;53.574;7.770;2023-05-01T08:00:16;101543.88;;;20.58;20.75
45040;BME280;30778;53.574;7.770;2023-05-01T08:02:42;101536.41;;;18.95;22.49
45040;BME280;30778;53.574;7.770;2023-05-01T08:05:08;101547.81;;;18.11;23.84
45040;BME280;30778;53.574;7.770;2023-05-01T08:07:33;101544.09;;;19.12;22.92
45040;BME280;30778;53.574;7.770;2023-05-01T08:09:59;101541.19;;;19.95;21.99
45040;BME280;30778;53.574;7.770;2023-05-01T08:12:25;101533.00;;;20.24;21.08
45040;BME280;30778;53.574;7.770;2023-05-01T08:14:51;101537.03;;;20.29;21.03
45040;BME280;30778;53.574;7.770;2023-05-01T08:17:17;101531.66;;;20.92;20.50
45040;BME280;30778;53.574;7.770;2023-05-01T08:19:43;101533.16;;;21.31;20.41
45040;BME280;30778;53.574;7.770;2023-05-01T08:22:09;101527.34;;;21.84;20.85
45040;BME280;30778;53.574;7.770;2023-05-01T08:24:36;101531.34;;;21.67;19.47
45040;BME280;30778;53.574;7.770;2023-05-01T08:27:01;101538.38;;;22.58;19.41
45040;BME280;30778;53.574;7.770;2023-05-01T08:29:27;101524.78;;;21.25;20.11
45040;BME280;30778;53.574;7.770;2023-05-01T08:31:55;101533.19;;;21.43;20.30
45040;BME280;30778;53.574;7.770;2023-05-01T08:34:21;101514.25;;;22.60;18.74
45040;BME280;30778;53.574;7.770;2023-05-01T08:36:46;101518.41;;;23.29;18.60
45040;BME280;30778;53.574;7.770;2023-05-01T08:39:12;101509.06;;;22.70;18.91
45040;BME280;30778;53.574;7.770;2023-05-01T08:41:39;101517.34;;;23.20;19.44
45040;BME280;30778;53.574;7.770;2023-05-01T08:44:09;101515.91;;;24.10;17.21
45040;BME280;30778;53.574;7.770;2023-05-01T08:46:37;101512.34;;;23.69;17.20
45040;BME280;30778;53.574;7.770;2023-05-01T08:49:12;101505.69;;;22.56;18.85
45040;BME280;30778;53.574;7.770;2023-05-01T08:51:44;101517.72;;;23.78;18.70
45040;BME280;30778;53.574;7.770;2023-05-01T08:54:14;101510.28;;;23.30;18.83
45040;BME280;30778;53.574;7.770;2023-05-01T08:56:42;101511.59;;;22.71;18.28
45040;BME280;30778;53.574;7.770;2023-05-01T08:59:09;101510.25;;;22.66;17.78
45040;BME280;30778;53.574;7.770;2023-05-01T09:01:36;101504.78;;;22.12;19.26
45040;BME280;30778;53.574;7.770;2023-05-01T09:04:02;101504.72;;;21.21;20.32
45040;BME280;30778;53.574;7.770;2023-05-01T09:06:29;101508.09;;;19.75;21.42
45040;BME280;30778;53.574;7.770;2023-05-01T09:08:57;101502.03;;;19.73;21.33
45040;BME280;30778;53.574;7.770;2023-05-01T09:11:23;101502.50;;;19.40;22.04
45040;BME280;30778;53.574;7.770;2023-05-01T09:13:50;101503.50;;;18.84;23.37
45040;BME280;30778;53.574;7.770;2023-05-01T09:16:17;101495.44;;;18.59;23.10
45040;BME280;30778;53.574;7.770;2023-05-01T09:18:43;101490.16;;;18.59;23.17
45040;BME280;30778;53.574;7.770;2023-05-01T09:21:09;101497.34;;;19.11;22.63
45040;BME280;30778;53.574;7.770;2023-05-01T09:23:36;101493.81;;;18.56;23.57
45040;BME280;30778;53.574;7.770;2023-05-01T09:26:03;101486.31;;;18.36;22.87
45040;BME280;30778;53.574;7.770;2023-05-01T09:28:41;101480.13;;;18.50;23.31
45040;BME280;30778;53.574;7.770;2023-05-01T09:31:24;101481.50;;;18.14;23.47
45040;BME280;30778;53.574;7.770;2023-05-01T09:33:54;101483.75;;;18.48;23.73
45040;BME280;30778;53.574;7.770;2023-05-01T09:36:22;101477.91;;;18.43;25.21
45040;BME280;30778;53.574;7.770;2023-05-01T09:38:47;101488.31;;;19.01;22.99
45040;BME280;30778;53.574;7.770;2023-05-01T09:41:15;101485.47;;;18.35;23.76
45040;BME280;30778;53.574;7.770;2023-05-01T09:43:48;101483.16;;;18.58;23.24
45040;BME280;30778;53.574;7.770;2023-05-01T09:46:14;101487.28;;;18.20;21.81
45040;BME280;30778;53.574;7.770;2023-05-01T09:48:39;101488.03;;;19.71;20.66
45040;BME280;30778;53.574;7.770;2023-05-01T09:53:54;101475.03;;;20.54;20.71
45040;BME280;30778;53.574;7.770;2023-05-01T09:56:20;101471.84;;;20.25;20.18
45040;BME280;30778;53.574;7.770;2023-05-01T09:58:48;101479.63;;;21.36;18.57
45040;BME280;30778;53.574;7.770;2023-05-01T10:01:15;101478.53;;;21.27;16.94
45040;BME280;30778;53.574;7.770;2023-05-01T10:03:42;101478.84;;;20.13;18.23
45040;BME280;30778;53.574;7.770;2023-05-01T10:06:10;101473.22;;;20.79;17.92
45040;BME280;30778;53.574;7.770;2023-05-01T10:08:47;101474.78;;;20.46;18.50
45040;BME280;30778;53.574;7.770;2023-05-01T10:11:13;101474.22;;;20.04;18.35
45040;BME280;30778;53.574;7.770;2023-05-01T10:13:38;101478.09;;;18.40;19.48
45040;BME280;30778;53.574;7.770;2023-05-01T10:16:04;101479.19;;;19.45;19.38
45040;BME280;30778;53.574;7.770;2023-05-01T10:18:35;101470.72;;;20.04;19.12
45040;BME280;30778;53.574;7.770;2023-05-01T10:21:03;101461.59;;;20.45;17.51
45040;BME280;30778;53.574;7.770;2023-05-01T10:23:29;101461.03;;;20.03;19.19
45040;BME280;30778;53.574;7.770;2023-05-01T10:25:55;101467.06;;;20.18;20.55
45040;BME280;30778;53.574;7.770;2023-05-01T10:28:23;101469.16;;;20.38;18.97
45040;BME280;30778;53.574;7.770;2023-05-01T10:30:50;101461.56;;;20.58;19.44
45040;BME280;30778;53.574;7.770;2023-05-01T10:33:16;101477.25;;;21.09;21.94
45040;BME280;30778;53.574;7.770;2023-05-01T10:35:47;101459.00;;;20.56;18.68
45040;BME280;30778;53.574;7.770;2023-05-01T10:38:27;101460.47;;;21.20;17.87
45040;BME280;30778;53.574;7.770;2023-05-01T10:40:55;101458.44;;;20.88;19.10
45040;BME280;30778;53.574;7.770;2023-05-01T10:43:24;101456.06;;;20.72;20.31
45040;BME280;30778;53.574;7.770;2023-05-01T10:51:24;101437.56;;;20.70;15.95
45040;BME280;30778;53.574;7.770;2023-05-01T10:59:03;101436.84;;;20.68;18.34
45040;BME280;30778;53.574;7.770;2023-05-01T11:01:39;101436.38;;;20.50;16.74
45040;BME280;30778;53.574;7.770;2023-05-01T11:09:38;101433.13;;;21.53;17.59
45040;BME280;30778;53.574;7.770;2023-05-01T11:12:04;101426.72;;;21.55;17.65
45040;BME280;30778;53.574;7.770;2023-05-01T11:20:07;101429.00;;;21.49;18.06
45040;BME280;30778;53.574;7.770;2023-05-01T11:22:33;101431.41;;;21.29;18.21
45040;BME280;30778;53.574;7.770;2023-05-01T11:25:01;101436.38;;;21.45;18.93
45040;BME280;30778;53.574;7.770;2023-05-01T11:27:30;101421.97;;;22.04;17.71
45040;BME280;30778;53.574;7.770;2023-05-01T11:29:59;101420.03;;;22.72;15.26
45040;BME280;30778;53.574;7.770;2023-05-01T11:32:27;101411.63;;;21.90;16.82
45040;BME280;30778;53.574;7.770;2023-05-01T11:34:55;101412.13;;;22.50;17.61
45040;BME280;30778;53.574;7.770;2023-05-01T11:37:44;101413.88;;;22.06;16.79
45040;BME280;30778;53.574;7.770;2023-05-01T11:40:20;101407.63;;;21.50;18.47
45040;BME280;30778;53.574;7.770;2023-05-01T11:42:47;101405.97;;;21.03;18.90
45040;BME280;30778;53.574;7.770;2023-05-01T11:45:13;101405.34;;;20.99;20.00
45040;BME280;30778;53.574;7.770;2023-05-01T11:47:39;101403.41;;;21.70;19.11
45040;BME280;30778;53.574;7.770;2023-05-01T11:50:06;101403.34;;;22.04;18.46
45040;BME280;30778;53.574;7.770;2023-05-01T11:52:49;101404.94;;;21.84;17.04
45040;BME280;30778;53.574;7.770;2023-05-01T11:55:18;101407.41;;;21.76;18.70
45040;BME280;30778;53.574;7.770;2023-05-01T11:57:49;101405.59;;;21.76;19.40
45040;BME280;30778;53.574;7.770;2023-05-01T12:00:25;101403.00;;;22.09;17.63
45040;BME280;30778;53.574;7.770;2023-05-01T12:03:00;101396.09;;;22.06;17.31
45040;BME280;30778;53.574;7.770;2023-05-01T12:05:27;101405.59;;;21.76;18.46
45040;BME280;30778;53.574;7.770;2023-05-01T12:08:22;101408.25;;;21.54;19.14
45040;BME280;30778;53.574;7.770;2023-05-01T12:10:50;101398.91;;;20.90;19.43
45040;BME280;30778;53.574;7.770;2023-05-01T12:13:17;101401.19;;;21.42;18.95
45040;BME280;30778;53.574;7.770;2023-05-01T12:15:45;101405.66;;;20.59;19.48
45040;BME280;30778;53.574;7.770;2023-05-01T12:18:12;101401.66;;;20.53;20.24
45040;BME280;30778;53.574;7.770;2023-05-01T12:20:42;101407.03;;;20.41;21.46
45040;BME280;30778;53.574;7.770;2023-05-01T12:23:10;101409.56;;;20.42;22.17
45040;BME280;30778;53.574;7.770;2023-05-01T12:25:37;101405.66;;;20.59;22.90
45040;BME280;30778;53.574;7.770;2023-05-01T12:28:12;101409.69;;;20.65;21.93
45040;BME280;30778;53.574;7.770;2023-05-01T12:30:42;101406.88;;;20.31;22.26
45040;BME280;30778;53.574;7.770;2023-05-01T12:33:26;101413.69;;;20.09;22.29
45040;BME280;30778;53.574;7.770;2023-05-01T12:35:51;101413.22;;;20.77;22.16
45040;BME280;30778;53.574;7.770;2023-05-01T12:38:18;101410.75;;;20.38;22.04
45040;BME280;30778;53.574;7.770;2023-05-01T12:40:49;101404.53;;;20.26;22.84
45040;BME280;30778;53.574;7.770;2023-05-01T12:43:19;101413.78;;;20.21;21.98
45040;BME280;30778;53.574;7.770;2023-05-01T12:45:47;101413.19;;;19.91;22.98
45040;BME280;30778;53.574;7.770;2023-05-01T12:48:14;101409.03;;;20.13;23.01
45040;BME280;30778;53.574;7.770;2023-05-01T12:50:40;101412.22;;;20.05;22.10
45040;BME280;30778;53.574;7.770;2023-05-01T12:53:07;101411.66;;;19.50;22.81
45040;BME280;30778;53.574;7.770;2023-05-01T12:55:42;101409.28;;;20.58;21.69
45040;BME280;30778;53.574;7.770;2023-05-01T12:58:10;101412.72;;;20.96;21.50
45040;BME280;30778;53.574;7.770;2023-05-01T13:00:50;101422.13;;;20.40;21.62
45040;BME280;30778;53.574;7.770;2023-05-01T13:03:23;101413.34;;;19.77;21.95
45040;BME280;30778;53.574;7.770;2023-05-01T13:06:00;101406.97;;;20.53;22.50
45040;BME280;30778;53.574;7.770;2023-05-01T13:08:36;101408.09;;;20.38;22.04
45040;BME280;30778;53.574;7.770;2023-05-01T13:11:14;101406.94;;;19.92;22.13
45040;BME280;30778;53.574;7.770;2023-05-01T13:13:44;101406.44;;;20.48;22.55
45040;BME280;30778;53.574;7.770;2023-05-01T13:16:14;101407.63;;;20.68;21.62
45040;BME280;30778;53.574;7.770;2023-05-01T13:18:48;101404.56;;;20.13;21.60
45040;BME280;30778;53.574;7.770;2023-05-01T13:21:15;101406.38;;;20.61;21.06
45040;BME280;30778;53.574;7.770;2023-05-01T13:23:55;101410.69;;;20.14;21.28
45040;BME280;30778;53.574;7.770;2023-05-01T13:26:25;101409.53;;;19.68;21.73
45040;BME280;30778;53.574;7.770;2023-05-01T13:29:02;101414.91;;;19.54;22.48
45040;BME280;30778;53.574;7.770;2023-05-01T13:31:28;101410.19;;;19.59;21.89
45040;BME280;30778;53.574;7.770;2023-05-01T13:33:56;101405.41;;;19.64;21.94
45040;BME280;30778;53.574;7.770;2023-05-01T13:36:22;101402.50;;;20.17;22.06
45040;BME280;30778;53.574;7.770;2023-05-01T13:38:49;101409.53;;;20.31;21.88
45040;BME280;30778;53.574;7.770;2023-05-01T13:41:16;101405.50;;;20.49;22.46
45040;BME280;30778;53.574;7.770;2023-05-01T13:43:44;101405.00;;;20.07;22.15